createdAt,value
2019-04-06T00:00:04.332Z,4.14
2019-04-06T00:01:04.314Z,4.14
2019-04-06T00:02:04.303Z,3.95
2019-04-06T00:03:04.285Z,4.06
2019-04-06T00:04:04.274Z,3.90
2019-04-06T00:05:04.255Z,3.84
2019-04-06T00:06:04.257Z,3.86
2019-04-06T00:07:04.229Z,3.82
2019-04-06T00:08:04.209Z,3.84
2019-04-06T00:09:04.193Z,3.78
2019-04-06T00:10:04.180Z,3.80
2019-04-06T00:11:04.164Z,3.90
2019-04-06T00:12:04.151Z,3.74
2019-04-06T00:13:04.140Z,3.80
2019-04-06T00:14:04.156Z,3.81
2019-04-06T00:15:04.103Z,3.78
2019-04-06T00:16:04.087Z,3.75
2019-04-06T00:17:04.075Z,3.77
2019-04-06T00:18:04.057Z,3.86
2019-04-06T00:19:04.042Z,3.81
2019-04-06T00:20:04.034Z,3.86
2019-04-06T00:21:04.011Z,3.80
2019-04-06T00:22:03.998Z,3.77
2019-04-06T00:23:03.983Z,3.77
2019-04-06T00:24:03.970Z,3.72
2019-04-06T00:25:03.950Z,3.71
2019-04-06T00:26:03.937Z,3.74
2019-04-06T00:27:03.921Z,3.80
2019-04-06T00:28:03.904Z,3.77
2019-04-06T00:29:03.896Z,3.86
2019-04-06T00:30:03.874Z,3.82
2019-04-06T00:31:03.863Z,3.81
2019-04-06T00:32:03.853Z,3.74
2019-04-06T00:33:03.836Z,3.88
2019-04-06T00:34:03.846Z,3.88
2019-04-06T00:35:03.798Z,3.80
2019-04-06T00:36:03.786Z,3.72
2019-04-06T00:37:03.768Z,3.75
2019-04-06T00:38:03.751Z,3.72
2019-04-06T00:39:03.748Z,3.70
2019-04-06T00:40:03.724Z,3.75
2019-04-06T00:41:03.707Z,3.77
2019-04-06T00:42:03.720Z,3.72
2019-04-06T00:43:03.677Z,3.80
2019-04-06T00:44:03.658Z,3.68
2019-04-06T00:45:03.648Z,3.67
2019-04-06T00:46:03.629Z,3.72
2019-04-06T00:47:03.617Z,3.62
2019-04-06T00:48:03.601Z,3.53
2019-04-06T00:49:03.648Z,3.56
2019-04-06T00:50:03.574Z,3.59
2019-04-06T00:51:03.556Z,3.53
2019-04-06T00:52:03.535Z,3.54
2019-04-06T00:53:03.523Z,3.52
2019-04-06T00:54:03.507Z,3.42
2019-04-06T00:55:03.495Z,3.53
2019-04-06T00:56:03.475Z,3.54
2019-04-06T00:57:03.472Z,3.42
2019-04-06T00:58:03.444Z,3.54
2019-04-06T00:59:03.431Z,3.49
2019-04-06T01:00:03.415Z,3.49
2019-04-06T01:01:03.400Z,3.44
2019-04-06T01:02:03.384Z,3.41
2019-04-06T01:03:03.371Z,3.53
2019-04-06T01:04:03.412Z,3.54
2019-04-06T01:05:03.337Z,3.39
2019-04-06T01:06:03.321Z,3.45
2019-04-06T01:07:03.307Z,3.44
2019-04-06T01:08:03.300Z,3.39
2019-04-06T01:09:03.277Z,3.34
2019-04-06T01:10:03.259Z,3.39
2019-04-06T01:11:03.245Z,3.49
2019-04-06T01:12:03.234Z,3.42
2019-04-06T01:13:03.213Z,3.50
2019-04-06T01:14:03.206Z,3.41
2019-04-06T01:15:03.183Z,3.50
2019-04-06T01:16:03.164Z,3.39
2019-04-06T01:17:03.156Z,3.41
2019-04-06T01:18:03.147Z,3.42
2019-04-06T01:19:03.130Z,3.35
2019-04-06T01:20:03.123Z,3.44
2019-04-06T01:21:03.088Z,3.44
2019-04-06T01:22:03.073Z,3.46
2019-04-06T01:23:03.062Z,3.41
2019-04-06T01:24:03.043Z,3.35
2019-04-06T01:25:03.027Z,3.42
2019-04-06T01:26:07.456Z,3.26
2019-04-06T01:27:02.997Z,3.30
2019-04-06T01:28:02.981Z,3.22
2019-04-06T01:29:02.968Z,3.35
2019-04-06T01:30:02.955Z,3.42
2019-04-06T01:31:02.938Z,3.52
2019-04-06T01:32:02.919Z,3.49
2019-04-06T01:33:02.908Z,3.35
2019-04-06T01:34:02.896Z,3.42
2019-04-06T01:35:02.883Z,3.41
2019-04-06T01:36:02.860Z,3.57
2019-04-06T01:37:02.841Z,3.57
2019-04-06T01:38:02.825Z,3.46
2019-04-06T01:39:02.814Z,3.46
2019-04-06T01:40:02.795Z,3.44
2019-04-06T01:41:02.777Z,3.39
2019-04-06T01:42:02.764Z,3.39
2019-04-06T01:43:02.750Z,3.22
2019-04-06T01:44:02.732Z,3.31
2019-04-06T01:45:02.715Z,3.20
2019-04-06T01:46:02.699Z,3.26
2019-04-06T01:47:02.683Z,3.34
2019-04-06T01:48:02.667Z,3.39
2019-04-06T01:49:02.655Z,3.44
2019-04-06T01:50:02.638Z,3.34
2019-04-06T01:51:02.640Z,3.42
2019-04-06T01:52:02.608Z,3.35
2019-04-06T01:53:02.591Z,3.30
2019-04-06T01:54:02.576Z,3.28
2019-04-06T01:55:02.567Z,3.30
2019-04-06T01:56:02.544Z,3.22
2019-04-06T01:57:02.535Z,3.25
2019-04-06T01:58:02.512Z,3.22
2019-04-06T01:59:02.501Z,3.20
2019-04-06T02:00:02.481Z,3.15
2019-04-06T02:01:02.467Z,3.20
2019-04-06T02:02:02.453Z,3.16
2019-04-06T02:03:02.434Z,3.16
2019-04-06T02:04:02.434Z,3.19
2019-04-06T02:05:02.509Z,3.15
2019-04-06T02:06:02.388Z,3.26
2019-04-06T02:07:02.372Z,3.31
2019-04-06T02:08:02.362Z,3.25
2019-04-06T02:09:02.350Z,3.17
2019-04-06T02:10:02.435Z,3.31
2019-04-06T02:11:02.309Z,3.16
2019-04-06T02:12:02.296Z,3.19
2019-04-06T02:13:02.276Z,3.37
2019-04-06T02:14:02.261Z,3.31
2019-04-06T02:15:02.245Z,3.35
2019-04-06T02:16:02.265Z,3.26
2019-04-06T02:17:02.222Z,3.31
2019-04-06T02:18:02.202Z,3.37
2019-04-06T02:19:02.185Z,3.34
2019-04-06T02:20:02.167Z,3.26
2019-04-06T02:21:02.152Z,3.39
2019-04-06T02:22:02.135Z,3.39
2019-04-06T02:23:02.120Z,3.31
2019-04-06T02:24:02.134Z,3.25
2019-04-06T02:25:02.160Z,3.16
2019-04-06T02:26:02.075Z,3.15
2019-04-06T02:27:02.060Z,3.05
2019-04-06T02:28:02.043Z,3.01
2019-04-06T02:29:02.025Z,3.08
2019-04-06T02:30:02.245Z,2.99
2019-04-06T02:31:02.170Z,3.02
2019-04-06T02:32:02.065Z,2.97
2019-04-06T02:33:01.962Z,3.01
2019-04-06T02:34:01.951Z,3.04
2019-04-06T02:35:01.944Z,3.01
2019-04-06T02:36:02.025Z,3.01
2019-04-06T02:37:01.899Z,3.10
2019-04-06T02:38:01.887Z,3.19
2019-04-06T02:39:01.875Z,3.04
2019-04-06T02:40:01.854Z,3.12
2019-04-06T02:41:01.926Z,3.05
2019-04-06T02:42:01.818Z,3.08
2019-04-06T02:43:01.896Z,3.20
2019-04-06T02:44:01.788Z,3.23
2019-04-06T02:45:01.786Z,3.22
2019-04-06T02:46:01.761Z,3.12
2019-04-06T02:47:01.982Z,3.01
2019-04-06T02:48:01.730Z,2.99
2019-04-06T02:49:01.708Z,3.04
2019-04-06T02:50:01.693Z,3.05
2019-04-06T02:51:01.782Z,3.12
2019-04-06T02:52:01.659Z,3.07
2019-04-06T02:53:01.644Z,3.13
2019-04-06T02:54:01.630Z,3.16
2019-04-06T02:55:01.671Z,3.13
2019-04-06T02:56:01.596Z,3.07
2019-04-06T02:57:01.581Z,3.04
2019-04-06T02:58:01.688Z,2.97
2019-04-06T02:59:01.546Z,3.01
2019-04-06T03:00:01.555Z,2.89
2019-04-06T03:01:01.513Z,2.84
2019-04-06T03:02:01.500Z,2.79
2019-04-06T03:03:01.504Z,2.81
2019-04-06T03:04:01.468Z,2.81
2019-04-06T03:05:01.450Z,2.81
2019-04-06T03:06:01.436Z,2.87
2019-04-06T03:07:01.420Z,2.73
2019-04-06T03:08:01.401Z,2.80
2019-04-06T03:09:01.467Z,2.86
2019-04-06T03:10:01.377Z,2.83
2019-04-06T03:11:01.357Z,2.79
2019-04-06T03:12:01.339Z,2.65
2019-04-06T03:13:01.462Z,2.80
2019-04-06T03:14:01.315Z,2.89
2019-04-06T03:15:01.452Z,2.86
2019-04-06T03:16:01.273Z,2.84
2019-04-06T03:17:01.260Z,2.69
2019-04-06T03:18:01.305Z,2.80
2019-04-06T03:19:01.228Z,2.84
2019-04-06T03:20:01.212Z,2.80
2019-04-06T03:21:01.195Z,2.79
2019-04-06T03:22:01.187Z,2.76
2019-04-06T03:23:01.196Z,2.66
2019-04-06T03:24:01.149Z,2.68
2019-04-06T03:25:01.293Z,2.63
2019-04-06T03:26:01.118Z,2.63
2019-04-06T03:27:02.851Z,2.62
2019-04-06T03:28:01.084Z,2.65
2019-04-06T03:29:01.316Z,2.56
2019-04-06T03:30:01.189Z,2.58
2019-04-06T03:31:01.035Z,2.48
2019-04-06T03:32:01.658Z,2.58
2019-04-06T03:33:01.157Z,2.55
2019-04-06T03:34:00.985Z,2.66
2019-04-06T03:35:01.144Z,2.50
2019-04-06T03:36:01.076Z,2.47
2019-04-06T03:37:00.941Z,2.47
2019-04-06T03:38:00.923Z,2.50
2019-04-06T03:39:00.906Z,2.41
2019-04-06T03:40:00.885Z,2.48
2019-04-06T03:41:00.929Z,2.47
2019-04-06T03:42:00.859Z,2.48
2019-04-06T03:43:00.839Z,2.45
2019-04-06T03:44:00.988Z,2.44
2019-04-06T03:45:00.813Z,2.45
2019-04-06T03:46:00.793Z,2.61
2019-04-06T03:47:00.956Z,2.53
2019-04-06T03:48:00.760Z,2.53
2019-04-06T03:49:00.755Z,2.63
2019-04-06T03:50:00.726Z,2.59
2019-04-06T03:51:00.711Z,2.53
2019-04-06T03:52:00.799Z,2.50
2019-04-06T03:53:00.683Z,2.56
2019-04-06T03:54:00.659Z,2.56
2019-04-06T03:55:00.653Z,2.55
2019-04-06T03:56:00.630Z,2.61
2019-04-06T03:57:13.960Z,2.63
2019-04-06T03:58:00.842Z,2.66
2019-04-06T03:59:00.914Z,2.68
2019-04-06T04:00:00.567Z,2.77
2019-04-06T04:01:00.552Z,2.74
2019-04-06T04:02:00.539Z,2.84
2019-04-06T04:03:00.517Z,2.84
2019-04-06T04:04:00.501Z,2.80
2019-04-06T04:05:00.502Z,2.84
2019-04-06T04:06:00.466Z,2.86
2019-04-06T04:07:00.455Z,2.89
2019-04-06T04:08:00.436Z,2.83
2019-04-06T04:09:00.422Z,2.89
2019-04-06T04:10:00.416Z,2.76
2019-04-06T04:11:00.660Z,2.79
2019-04-06T04:12:00.371Z,2.81
2019-04-06T04:13:00.353Z,2.79
2019-04-06T04:14:00.351Z,2.79
2019-04-06T04:15:00.340Z,2.76
2019-04-06T04:16:00.310Z,2.68
2019-04-06T04:17:00.291Z,2.69
2019-04-06T04:18:00.274Z,2.77
2019-04-06T04:19:00.260Z,2.66
2019-04-06T04:20:00.244Z,2.65
2019-04-06T04:21:00.226Z,2.65
2019-04-06T04:22:00.212Z,2.68
2019-04-06T04:23:00.197Z,2.79
2019-04-06T04:24:00.180Z,2.73
2019-04-06T04:25:00.162Z,2.66
2019-04-06T04:26:00.145Z,2.76
2019-04-06T04:27:00.131Z,2.76
2019-04-06T04:28:00.113Z,2.81
2019-04-06T04:29:00.100Z,2.87
2019-04-06T04:30:00.082Z,2.79
2019-04-06T04:31:00.065Z,2.79
2019-04-06T04:32:00.152Z,2.79
2019-04-06T04:33:00.034Z,2.79
2019-04-06T04:34:00.224Z,2.81
2019-04-06T04:34:59.999Z,2.86
2019-04-06T04:36:00.045Z,2.73
2019-04-06T04:36:59.971Z,2.81
2019-04-06T04:37:59.953Z,2.89
2019-04-06T04:38:59.945Z,2.86
2019-04-06T04:39:59.924Z,2.77
2019-04-06T04:40:59.907Z,2.87
2019-04-06T04:41:59.891Z,2.77
2019-04-06T04:43:00.134Z,2.89
2019-04-06T04:43:59.858Z,2.99
2019-04-06T04:44:59.841Z,2.90
2019-04-06T04:45:59.829Z,3.01
2019-04-06T04:46:59.810Z,3.08
2019-04-06T04:47:59.793Z,3.20
2019-04-06T04:48:59.777Z,3.26
2019-04-06T04:49:59.760Z,3.17
2019-04-06T04:50:59.748Z,3.22
2019-04-06T04:51:59.749Z,3.31
2019-04-06T04:52:59.731Z,3.30
2019-04-06T04:53:59.697Z,3.28
2019-04-06T04:54:59.682Z,3.25
2019-04-06T04:55:59.667Z,3.31
2019-04-06T04:56:59.653Z,3.26
2019-04-06T04:57:59.635Z,3.22
2019-04-06T04:58:59.620Z,3.20
2019-04-06T04:59:59.606Z,3.26
2019-04-06T05:00:59.794Z,3.25
2019-04-06T05:01:59.576Z,3.28
2019-04-06T05:02:59.561Z,3.30
2019-04-06T05:03:59.725Z,3.10
2019-04-06T05:04:59.528Z,3.23
2019-04-06T05:05:59.526Z,3.13
2019-04-06T05:06:59.496Z,3.04
2019-04-06T05:07:59.483Z,3.12
2019-04-06T05:08:59.464Z,3.10
2019-04-06T05:09:59.450Z,3.17
2019-04-06T05:10:59.433Z,3.05
2019-04-06T05:11:59.416Z,3.07
2019-04-06T05:12:59.402Z,3.04
2019-04-06T05:13:59.384Z,3.01
2019-04-06T05:14:59.370Z,3.01
2019-04-06T05:15:59.353Z,3.12
2019-04-06T05:16:59.337Z,3.19
2019-04-06T05:17:59.321Z,3.26
2019-04-06T05:18:59.307Z,3.34
2019-04-06T05:19:59.297Z,3.41
2019-04-06T05:20:59.282Z,3.44
2019-04-06T05:21:59.259Z,3.45
2019-04-06T05:22:59.242Z,3.34
2019-04-06T05:23:59.227Z,3.35
2019-04-06T05:24:59.213Z,3.37
2019-04-06T05:25:59.199Z,3.54
2019-04-06T05:26:59.179Z,3.62
2019-04-06T05:27:59.169Z,3.62
2019-04-06T05:28:59.145Z,3.62
2019-04-06T05:29:59.132Z,3.60
2019-04-06T05:30:59.117Z,3.59
2019-04-06T05:31:59.217Z,3.50
2019-04-06T05:32:59.086Z,3.54
2019-04-06T05:33:59.069Z,3.50
2019-04-06T05:34:59.055Z,3.56
2019-04-06T05:35:59.037Z,3.44
2019-04-06T05:36:59.024Z,3.42
2019-04-06T05:37:59.005Z,3.49
2019-04-06T05:38:58.993Z,3.46
2019-04-06T05:39:59.003Z,3.46
2019-04-06T05:40:58.959Z,3.44
2019-04-06T05:41:58.942Z,3.50
2019-04-06T05:42:58.926Z,3.52
2019-04-06T05:43:58.910Z,3.59
2019-04-06T05:44:58.892Z,3.68
2019-04-06T05:45:58.879Z,3.62
2019-04-06T05:46:58.866Z,3.63
2019-04-06T05:47:59.037Z,3.74
2019-04-06T05:48:58.830Z,3.75
2019-04-06T05:49:58.816Z,4.07
2019-04-06T05:50:58.798Z,4.00
2019-04-06T05:51:58.783Z,3.98
2019-04-06T05:52:58.769Z,3.90
2019-04-06T05:53:58.874Z,3.82
2019-04-06T05:54:58.737Z,3.81
2019-04-06T05:55:58.730Z,3.70
2019-04-06T05:56:58.705Z,3.71
2019-04-06T05:58:04.200Z,3.71
2019-04-06T05:58:58.705Z,3.78
2019-04-06T05:59:58.659Z,3.77
2019-04-06T06:00:58.642Z,3.80
2019-04-06T06:01:58.628Z,3.80
2019-04-06T06:02:58.615Z,3.80
2019-04-06T06:03:58.616Z,3.81
2019-04-06T06:05:00.797Z,3.80
2019-04-06T06:05:58.564Z,3.98
2019-04-06T06:06:58.547Z,3.98
2019-04-06T06:07:58.531Z,4.08
2019-04-06T06:08:58.515Z,4.17
2019-04-06T06:09:58.564Z,4.20
2019-04-06T06:10:58.485Z,4.20
2019-04-06T06:11:58.470Z,4.13
2019-04-06T06:12:58.488Z,4.13
2019-04-06T06:13:58.443Z,4.18
2019-04-06T06:14:58.422Z,4.20
2019-04-06T06:15:58.503Z,4.08
2019-04-06T06:16:58.390Z,4.14
2019-04-06T06:17:58.376Z,4.18
2019-04-06T06:18:58.363Z,4.20
2019-04-06T06:19:58.346Z,4.16
2019-04-06T06:20:58.330Z,4.35
2019-04-06T06:21:58.316Z,4.28
2019-04-06T06:22:58.304Z,4.38
2019-04-06T06:23:58.282Z,4.46
2019-04-06T06:24:58.353Z,4.42
2019-04-06T06:25:58.251Z,4.42
2019-04-06T06:26:58.240Z,4.44
2019-04-06T06:27:58.220Z,4.51
2019-04-06T06:28:58.207Z,4.46
2019-04-06T06:29:58.199Z,4.50
2019-04-06T06:30:58.176Z,4.57
2019-04-06T06:31:58.161Z,4.57
2019-04-06T06:32:58.144Z,4.65
2019-04-06T06:33:58.131Z,4.65
2019-04-06T06:34:58.116Z,4.65
2019-04-06T06:35:58.101Z,4.65
2019-04-06T06:36:58.084Z,4.83
2019-04-06T06:37:58.071Z,4.86
2019-04-06T06:38:58.061Z,4.86
2019-04-06T06:39:58.048Z,5.01
2019-04-06T06:40:58.025Z,5.04
2019-04-06T06:41:58.011Z,5.11
2019-04-06T06:42:57.995Z,5.23
2019-04-06T06:43:57.981Z,5.26
2019-04-06T06:44:57.967Z,5.24
2019-04-06T06:45:57.987Z,5.38
2019-04-06T06:46:57.939Z,5.41
2019-04-06T06:47:57.924Z,5.44
2019-04-06T06:48:57.908Z,5.38
2019-04-06T06:49:57.894Z,5.47
2019-04-06T06:50:57.877Z,5.40
2019-04-06T06:51:57.865Z,5.35
2019-04-06T06:52:58.001Z,5.42
2019-04-06T06:53:57.835Z,5.47
2019-04-06T06:54:57.822Z,5.45
2019-04-06T06:55:57.825Z,5.51
2019-04-06T06:56:57.797Z,5.60
2019-04-06T06:57:57.779Z,5.52
2019-04-06T06:58:57.920Z,5.60
2019-04-06T06:59:58.115Z,5.52
2019-04-06T07:00:57.735Z,5.51
2019-04-06T07:01:57.935Z,5.47
2019-04-06T07:02:57.710Z,5.44
2019-04-06T07:03:57.694Z,5.55
2019-04-06T07:04:57.681Z,5.56
2019-04-06T07:05:57.802Z,5.62
2019-04-06T07:06:57.655Z,5.67
2019-04-06T07:07:57.637Z,5.63
2019-04-06T07:08:57.626Z,5.63
2019-04-06T07:10:05.093Z,5.66
2019-04-06T07:10:57.597Z,5.66
2019-04-06T07:11:57.580Z,5.66
2019-04-06T07:12:57.570Z,5.78
2019-04-06T07:13:57.573Z,5.78
2019-04-06T07:14:57.623Z,5.67
2019-04-06T07:15:57.527Z,5.63
2019-04-06T07:16:57.680Z,5.66
2019-04-06T07:17:57.679Z,5.73
2019-04-06T07:18:57.484Z,5.69
2019-04-06T07:19:57.466Z,5.69
2019-04-06T07:20:57.458Z,5.77
2019-04-06T07:21:57.455Z,5.65
2019-04-06T07:22:57.429Z,5.74
2019-04-06T07:23:57.411Z,5.84
2019-04-06T07:24:57.397Z,5.95
2019-04-06T07:25:59.054Z,6.05
2019-04-06T07:26:57.550Z,6.08
2019-04-06T07:27:57.359Z,6.17
2019-04-06T07:28:57.344Z,6.20
2019-04-06T07:29:57.329Z,6.16
2019-04-06T07:30:57.313Z,6.20
2019-04-06T07:31:57.300Z,6.06
2019-04-06T07:32:57.296Z,6.02
2019-04-06T07:33:57.273Z,6.01
2019-04-06T07:34:57.260Z,6.08
2019-04-06T07:35:57.243Z,6.21
2019-04-06T07:36:57.232Z,6.21
2019-04-06T07:37:57.218Z,6.24
2019-04-06T07:38:57.204Z,6.35
2019-04-06T07:39:57.189Z,6.43
2019-04-06T07:40:57.178Z,6.45
2019-04-06T07:41:57.163Z,6.48
2019-04-06T07:42:57.149Z,6.57
2019-04-06T07:43:57.138Z,6.68
2019-04-06T07:44:57.119Z,6.68
2019-04-06T07:45:57.107Z,6.79
2019-04-06T07:46:57.344Z,6.97
2019-04-06T07:47:57.088Z,7.15
2019-04-06T07:49:07.765Z,7.36
2019-04-06T07:49:57.055Z,7.45
2019-04-06T07:50:57.039Z,7.41
2019-04-06T07:51:57.024Z,7.48
2019-04-06T07:52:57.071Z,7.58
2019-04-06T07:53:57.003Z,7.67
2019-04-06T07:54:56.990Z,7.63
2019-04-06T07:55:57.132Z,7.81
2019-04-06T07:56:56.966Z,7.77
2019-04-06T07:57:56.944Z,7.82
2019-04-06T07:58:56.984Z,7.79
2019-04-06T07:59:56.914Z,7.94
2019-04-06T08:00:56.913Z,7.94
2019-04-06T08:01:56.897Z,8.07
2019-04-06T08:02:56.879Z,8.06
2019-04-06T08:03:56.939Z,8.24
2019-04-06T08:04:56.850Z,8.32
2019-04-06T08:05:56.836Z,8.29
2019-04-06T08:06:56.846Z,8.29
2019-04-06T08:07:56.812Z,8.37
2019-04-06T08:08:56.802Z,8.29
2019-04-06T08:09:56.788Z,8.37
2019-04-06T08:10:56.773Z,8.37
2019-04-06T08:11:56.782Z,8.46
2019-04-06T08:12:56.747Z,8.52
2019-04-06T08:13:56.733Z,8.65
2019-04-06T08:14:57.525Z,8.68
2019-04-06T08:15:56.710Z,8.64
2019-04-06T08:16:56.695Z,8.43
2019-04-06T08:17:56.686Z,8.46
2019-04-06T08:18:56.672Z,8.57
2019-04-06T08:19:56.659Z,8.60
2019-04-06T08:20:56.646Z,8.64
2019-04-06T08:21:56.831Z,8.58
2019-04-06T08:22:56.623Z,8.64
2019-04-06T08:23:56.611Z,8.64
2019-04-06T08:24:57.072Z,8.67
2019-04-06T08:25:56.585Z,8.71
2019-04-06T08:26:56.719Z,8.83
2019-04-06T08:27:56.563Z,8.86
2019-04-06T08:29:01.511Z,8.86
2019-04-06T08:29:56.763Z,8.86
2019-04-06T08:30:56.642Z,8.88
2019-04-06T08:31:56.701Z,8.83
2019-04-06T08:32:56.496Z,8.93
2019-04-06T08:33:56.488Z,8.86
2019-04-06T08:34:56.473Z,9.01
2019-04-06T08:35:56.460Z,9.17
2019-04-06T08:36:56.447Z,9.24
2019-04-06T08:37:56.436Z,9.20
2019-04-06T08:38:56.424Z,9.26
2019-04-06T08:39:56.672Z,9.27
2019-04-06T08:40:56.451Z,9.31
2019-04-06T08:41:56.387Z,9.23
2019-04-06T08:42:56.507Z,9.30
2019-04-06T08:43:56.361Z,9.22
2019-04-06T08:44:56.351Z,9.32
2019-04-06T08:45:56.341Z,9.37
2019-04-06T08:46:56.329Z,9.42
2019-04-06T08:47:56.357Z,9.49
2019-04-06T08:48:56.302Z,9.60
2019-04-06T08:49:56.290Z,9.62
2019-04-06T08:50:56.278Z,9.56
2019-04-06T08:51:56.265Z,9.65
2019-04-06T08:52:56.493Z,9.74
2019-04-06T08:53:56.317Z,9.78
2019-04-06T08:54:56.233Z,9.92
2019-04-06T08:55:56.219Z,9.93
2019-04-06T08:56:56.209Z,9.95
2019-04-06T08:57:56.197Z,10.07
2019-04-06T08:58:56.212Z,10.13
2019-04-06T08:59:56.171Z,10.04
2019-04-06T09:00:56.161Z,10.18
2019-04-06T09:01:56.148Z,10.29
2019-04-06T09:02:56.146Z,10.35
2019-04-06T09:03:56.127Z,10.44
2019-04-06T09:04:56.116Z,10.54
2019-04-06T09:05:56.102Z,10.55
2019-04-06T09:06:56.143Z,10.55
2019-04-06T09:07:56.080Z,10.62
2019-04-06T09:08:56.070Z,10.57
2019-04-06T09:09:56.464Z,10.57
2019-04-06T09:10:56.052Z,10.69
2019-04-06T09:11:56.035Z,10.83
2019-04-06T09:12:56.027Z,10.99
2019-04-06T09:13:56.020Z,11.08
2019-04-06T09:14:56.011Z,11.17
2019-04-06T09:15:56.116Z,11.44
2019-04-06T09:16:55.982Z,11.36
2019-04-06T09:17:55.974Z,11.51
2019-04-06T09:18:56.175Z,11.60
2019-04-06T09:19:55.948Z,11.78
2019-04-06T09:20:55.938Z,11.82
2019-04-06T09:21:55.929Z,12.01
2019-04-06T09:22:56.117Z,12.01
2019-04-06T09:23:58.230Z,12.00
2019-04-06T09:24:55.896Z,11.87
2019-04-06T09:25:55.892Z,11.79
2019-04-06T09:26:55.877Z,11.69
2019-04-06T09:27:55.867Z,11.51
2019-04-06T09:28:55.894Z,11.42
2019-04-06T09:29:55.846Z,11.39
2019-04-06T09:30:55.849Z,11.27
2019-04-06T09:31:55.827Z,11.41
2019-04-06T09:32:56.005Z,11.39
2019-04-06T09:33:55.807Z,11.36
2019-04-06T09:34:55.795Z,11.26
2019-04-06T09:35:55.811Z,11.19
2019-04-06T09:36:55.773Z,11.21
2019-04-06T09:37:55.766Z,11.20
2019-04-06T09:38:55.751Z,11.17
2019-04-06T09:39:55.929Z,11.21
2019-04-06T09:40:55.747Z,11.17
2019-04-06T09:41:55.795Z,11.21
2019-04-06T09:42:55.710Z,11.23
2019-04-06T09:43:55.943Z,11.16
2019-04-06T09:44:55.915Z,11.26
2019-04-06T09:45:55.680Z,11.23
2019-04-06T09:46:55.670Z,11.23
2019-04-06T09:47:55.659Z,11.30
2019-04-06T09:48:55.649Z,11.33
2019-04-06T09:49:55.640Z,11.23
2019-04-06T09:50:55.628Z,11.13
2019-04-06T09:51:55.684Z,11.09
2019-04-06T09:52:55.603Z,11.01
2019-04-06T09:54:05.190Z,11.05
2019-04-06T09:54:55.586Z,11.21
2019-04-06T09:55:55.572Z,11.20
2019-04-06T09:56:55.565Z,11.12
2019-04-06T09:57:55.565Z,11.03
2019-04-06T09:58:55.546Z,11.09
2019-04-06T09:59:55.532Z,11.12
2019-04-06T10:00:55.761Z,11.08
2019-04-06T10:01:55.512Z,11.13
2019-04-06T10:02:55.637Z,11.08
2019-04-06T10:03:55.489Z,11.19
2019-04-06T10:04:55.480Z,11.23
2019-04-06T10:05:55.469Z,11.16
2019-04-06T10:06:55.456Z,11.28
2019-04-06T10:07:55.447Z,11.39
2019-04-06T10:08:55.435Z,11.38
2019-04-06T10:09:55.428Z,11.63
2019-04-06T10:10:55.415Z,11.62
2019-04-06T10:11:55.402Z,11.88
2019-04-06T10:12:55.557Z,12.04
2019-04-06T10:13:55.388Z,12.11
2019-04-06T10:14:55.372Z,12.19
2019-04-06T10:15:55.360Z,12.33
2019-04-06T10:16:55.351Z,12.40
2019-04-06T10:17:55.339Z,12.43
2019-04-06T10:18:55.437Z,12.41
2019-04-06T10:19:55.433Z,12.31
2019-04-06T10:20:55.312Z,12.48
2019-04-06T10:21:55.302Z,12.54
2019-04-06T10:22:55.288Z,12.59
2019-04-06T10:23:55.278Z,12.59
2019-04-06T10:24:55.269Z,12.59
2019-04-06T10:25:55.259Z,12.69
2019-04-06T10:26:55.249Z,12.70
2019-04-06T10:27:55.244Z,12.74
2019-04-06T10:28:55.472Z,12.77
2019-04-06T10:29:55.219Z,12.67
2019-04-06T10:30:55.501Z,12.67
2019-04-06T10:31:55.452Z,12.67
2019-04-06T10:32:55.426Z,12.69
2019-04-06T10:33:55.180Z,12.67
2019-04-06T10:34:55.168Z,12.74
2019-04-06T10:35:55.158Z,12.79
2019-04-06T10:36:55.149Z,12.74
2019-04-06T10:37:55.140Z,12.74
2019-04-06T10:38:55.513Z,12.66
2019-04-06T10:39:55.120Z,12.66
2019-04-06T10:40:55.111Z,12.67
2019-04-06T10:41:55.177Z,12.76
2019-04-06T10:42:55.090Z,12.77
2019-04-06T10:43:55.079Z,12.79
2019-04-06T10:44:55.070Z,12.88
2019-04-06T10:45:55.061Z,12.92
2019-04-06T10:46:55.230Z,13.03
2019-04-06T10:47:55.041Z,13.07
2019-04-06T10:48:55.031Z,13.13
2019-04-06T10:49:55.025Z,13.17
2019-04-06T10:50:55.013Z,13.09
2019-04-06T10:51:55.001Z,13.16
2019-04-06T10:52:54.994Z,13.10
2019-04-06T10:53:55.070Z,13.09
2019-04-06T10:54:54.985Z,12.88
2019-04-06T10:55:54.964Z,13.07
2019-04-06T10:56:54.957Z,13.10
2019-04-06T10:57:54.944Z,13.10
2019-04-06T10:58:54.936Z,13.04
2019-04-06T11:00:01.950Z,12.95
2019-04-06T11:00:54.916Z,12.89
2019-04-06T11:01:54.909Z,12.84
2019-04-06T11:02:54.896Z,12.87
2019-04-06T11:03:54.889Z,12.84
2019-04-06T11:04:54.877Z,12.87
2019-04-06T11:05:54.869Z,12.73
2019-04-06T11:06:54.860Z,12.69
2019-04-06T11:07:54.893Z,12.54
2019-04-06T11:08:54.838Z,12.61
2019-04-06T11:09:54.829Z,12.62
2019-04-06T11:10:54.819Z,12.73
2019-04-06T11:11:54.878Z,12.73
2019-04-06T11:12:54.801Z,12.76
2019-04-06T11:13:54.792Z,12.76
2019-04-06T11:14:54.780Z,12.84
2019-04-06T11:15:54.771Z,12.91
2019-04-06T11:16:54.763Z,12.85
2019-04-06T11:17:54.750Z,12.91
2019-04-06T11:18:54.739Z,12.81
2019-04-06T11:19:55.045Z,12.94
2019-04-06T11:20:54.720Z,12.85
2019-04-06T11:21:54.714Z,12.94
2019-04-06T11:22:54.702Z,13.01
2019-04-06T11:23:54.693Z,13.04
2019-04-06T11:24:54.681Z,13.04
2019-04-06T11:25:54.679Z,12.98
2019-04-06T11:26:54.661Z,13.09
2019-04-06T11:27:54.650Z,13.07
2019-04-06T11:28:54.645Z,13.13
2019-04-06T11:29:55.016Z,13.13
2019-04-06T11:30:54.623Z,13.13
2019-04-06T11:31:54.687Z,13.21
2019-04-06T11:32:54.604Z,13.27
2019-04-06T11:33:54.647Z,13.28
2019-04-06T11:34:54.586Z,13.36
2019-04-06T11:35:54.574Z,13.38
2019-04-06T11:36:54.631Z,13.47
2019-04-06T11:37:54.559Z,13.50
2019-04-06T11:38:54.546Z,13.66
2019-04-06T11:39:54.537Z,13.69
2019-04-06T11:40:54.526Z,13.71
2019-04-06T11:41:55.422Z,13.73
2019-04-06T11:42:54.555Z,13.90
2019-04-06T11:43:54.554Z,13.84
2019-04-06T11:44:54.489Z,13.79
2019-04-06T11:45:54.481Z,13.76
2019-04-06T11:46:54.469Z,13.72
2019-04-06T11:47:54.461Z,13.73
2019-04-06T11:48:54.453Z,13.76
2019-04-06T11:49:54.592Z,13.80
2019-04-06T11:50:54.435Z,13.98
2019-04-06T11:51:54.422Z,13.94
2019-04-06T11:52:54.415Z,13.93
2019-04-06T11:53:54.700Z,13.99
2019-04-06T11:54:54.575Z,14.01
2019-04-06T11:55:54.388Z,13.99
2019-04-06T11:56:54.400Z,14.08
2019-04-06T11:57:54.370Z,14.02
2019-04-06T11:58:54.615Z,14.17
2019-04-06T11:59:54.349Z,14.16
2019-04-06T12:00:54.344Z,14.05
2019-04-06T12:01:54.333Z,14.01
2019-04-06T12:02:54.323Z,13.91
2019-04-06T12:03:54.370Z,14.06
2019-04-06T12:04:54.306Z,14.04
2019-04-06T12:05:54.294Z,14.19
2019-04-06T12:06:54.288Z,14.17
2019-04-06T12:07:54.276Z,14.13
2019-04-06T12:08:54.273Z,14.13
2019-04-06T12:09:54.260Z,14.11
2019-04-06T12:10:54.253Z,14.01
2019-04-06T12:11:54.241Z,13.98
2019-04-06T12:12:55.814Z,14.06
2019-04-06T12:13:54.291Z,14.06
2019-04-06T12:14:54.215Z,14.12
2019-04-06T12:15:54.208Z,14.16
2019-04-06T12:16:54.352Z,14.11
2019-04-06T12:17:54.188Z,14.20
2019-04-06T12:18:54.184Z,14.27
2019-04-06T12:19:54.170Z,14.21
2019-04-06T12:20:54.162Z,14.12
2019-04-06T12:21:54.155Z,14.17
2019-04-06T12:22:54.154Z,14.20
2019-04-06T12:23:54.138Z,14.31
2019-04-06T12:24:54.127Z,14.42
2019-04-06T12:25:54.120Z,14.45
2019-04-06T12:26:54.172Z,14.54
2019-04-06T12:27:54.111Z,14.54
2019-04-06T12:28:54.145Z,14.57
2019-04-06T12:29:54.082Z,14.63
2019-04-06T12:30:54.072Z,14.61
2019-04-06T12:31:54.067Z,14.67
2019-04-06T12:32:54.057Z,14.67
2019-04-06T12:33:54.047Z,14.53
2019-04-06T12:34:54.042Z,14.59
2019-04-06T12:35:54.441Z,14.54
2019-04-06T12:36:54.023Z,14.61
2019-04-06T12:37:54.014Z,14.60
2019-04-06T12:38:54.045Z,14.56
2019-04-06T12:39:54.723Z,14.57
2019-04-06T12:40:53.990Z,14.57
2019-04-06T12:41:53.979Z,14.54
2019-04-06T12:42:53.979Z,14.66
2019-04-06T12:43:54.147Z,14.67
2019-04-06T12:44:54.096Z,14.78
2019-04-06T12:45:53.949Z,14.72
2019-04-06T12:46:54.053Z,14.78
2019-04-06T12:47:53.930Z,14.75
2019-04-06T12:48:53.921Z,14.74
2019-04-06T12:49:53.913Z,14.69
2019-04-06T12:50:54.013Z,14.61
2019-04-06T12:51:54.058Z,14.67
2019-04-06T12:52:53.889Z,14.71
2019-04-06T12:53:53.880Z,14.79
2019-04-06T12:54:53.873Z,14.71
2019-04-06T12:55:54.188Z,14.80
2019-04-06T12:56:53.856Z,14.71
2019-04-06T12:57:54.131Z,14.69
2019-04-06T12:58:54.106Z,14.83
2019-04-06T12:59:53.829Z,14.83
2019-04-06T13:00:54.399Z,14.75
2019-04-06T13:01:53.815Z,14.60
2019-04-06T13:02:53.894Z,14.63
2019-04-06T13:03:54.144Z,14.63
2019-04-06T13:04:53.798Z,14.66
2019-04-06T13:05:53.948Z,14.57
2019-04-06T13:06:53.772Z,14.57
2019-04-06T13:07:53.762Z,14.54
2019-04-06T13:08:53.758Z,14.56
2019-04-06T13:09:53.748Z,14.56